Terminal Aerodrome Forecast
Issued by NWS

Current Version | Previous Version | Text Only | Print | Product List | Glossary Off
Versions: 1 2 3 4 5 6 7 8 9 10 11 12 13 14 15 16 17 18 19 20 21 22

730
FTUS41 KPBZ 301600 AAA
TAFMGW
TAF AMD
KMGW 301600Z 3016/0112 18010G15KT 5SM -SHRA SCT015 OVC050
     FM301800 20008G15KT P6SM -SHRA OVC040
     FM010400 26010KT P6SM BKN035
     FM010900 24006KT P6SM OVC025=

USA.gov is the U.S. government's official web portal to all federal, state and local government web resources and services.